sensor_id;sensor_type;location;lat;lon;timestamp;P1;durP1;ratioP1;P2;durP2;ratioP2
2710;SDS011;20721;47.402;8.550;2023-06-05T00:00:25;8.07;;;8.07;;
2710;SDS011;20721;47.402;8.550;2023-06-05T00:01:25;8.30;;;8.30;;
2710;SDS011;20721;47.402;8.550;2023-06-05T00:02:26;7.72;;;7.72;;
2710;SDS011;20721;47.402;8.550;2023-06-05T00:03:28;8.30;;;8.30;;
2710;SDS011;20721;47.402;8.550;2023-06-05T00:04:25;7.70;;;7.70;;
2710;SDS011;20721;47.402;8.550;2023-06-05T00:05:28;7.47;;;7.47;;
2710;SDS011;20721;47.402;8.550;2023-06-05T00:06:25;8.09;;;8.09;;
2710;SDS011;20721;47.402;8.550;2023-06-05T00:07:25;7.34;;;7.32;;
2710;SDS011;20721;47.402;8.550;2023-06-05T00:08:25;8.00;;;8.00;;
2710;SDS011;20721;47.402;8.550;2023-06-05T00:09:30;8.25;;;8.25;;
2710;SDS011;20721;47.402;8.550;2023-06-05T00:10:25;7.51;;;7.51;;
2710;SDS011;20721;47.402;8.550;2023-06-05T00:12:25;6.87;;;6.87;;
2710;SDS011;20721;47.402;8.550;2023-06-05T00:13:26;8.46;;;8.46;;
2710;SDS011;20721;47.402;8.550;2023-06-05T00:14:25;7.90;;;7.89;;
2710;SDS011;20721;47.402;8.550;2023-06-05T00:15:30;7.57;;;7.55;;
2710;SDS011;20721;47.402;8.550;2023-06-05T00:16:26;7.81;;;7.80;;
2710;SDS011;20721;47.402;8.550;2023-06-05T00:17:27;9.15;;;9.15;;
2710;SDS011;20721;47.402;8.550;2023-06-05T00:18:25;8.45;;;8.45;;
2710;SDS011;20721;47.402;8.550;2023-06-05T00:20:25;8.70;;;8.70;;
2710;SDS011;20721;47.402;8.550;2023-06-05T00:21:25;9.41;;;9.41;;
2710;SDS011;20721;47.402;8.550;2023-06-05T00:24:25;8.96;;;8.94;;
2710;SDS011;20721;47.402;8.550;2023-06-05T00:25:25;9.16;;;9.16;;
2710;SDS011;20721;47.402;8.550;2023-06-05T00:28:25;8.17;;;8.17;;
2710;SDS011;20721;47.402;8.550;2023-06-05T00:29:25;8.24;;;8.24;;
2710;SDS011;20721;47.402;8.550;2023-06-05T00:30:25;9.17;;;9.17;;
2710;SDS011;20721;47.402;8.550;2023-06-05T00:31:27;8.74;;;8.74;;
2710;SDS011;20721;47.402;8.550;2023-06-05T00:32:25;8.80;;;8.80;;
2710;SDS011;20721;47.402;8.550;2023-06-05T00:36:25;8.41;;;8.41;;
2710;SDS011;20721;47.402;8.550;2023-06-05T00:38:26;7.83;;;7.83;;
2710;SDS011;20721;47.402;8.550;2023-06-05T00:39:25;7.58;;;7.58;;
2710;SDS011;20721;47.402;8.550;2023-06-05T00:40:25;8.76;;;8.76;;
2710;SDS011;20721;47.402;8.550;2023-06-05T00:41:25;8.38;;;8.38;;
2710;SDS011;20721;47.402;8.550;2023-06-05T00:42:25;8.45;;;8.45;;
2710;SDS011;20721;47.402;8.550;2023-06-05T00:43:26;8.25;;;8.19;;
2710;SDS011;20721;47.402;8.550;2023-06-05T00:44:27;8.04;;;8.04;;
2710;SDS011;20721;47.402;8.550;2023-06-05T00:45:25;8.46;;;8.46;;
2710;SDS011;20721;47.402;8.550;2023-06-05T00:46:25;7.08;;;7.08;;
2710;SDS011;20721;47.402;8.550;2023-06-05T00:47:25;7.50;;;7.50;;
2710;SDS011;20721;47.402;8.550;2023-06-05T00:48:25;8.90;;;8.90;;
2710;SDS011;20721;47.402;8.550;2023-06-05T00:49:26;8.33;;;8.33;;
2710;SDS011;20721;47.402;8.550;2023-06-05T00:50:26;9.28;;;9.28;;
2710;SDS011;20721;47.402;8.550;2023-06-05T00:51:26;8.35;;;8.35;;
2710;SDS011;20721;47.402;8.550;2023-06-05T00:52:31;8.57;;;8.57;;
2710;SDS011;20721;47.402;8.550;2023-06-05T00:53:25;8.04;;;8.04;;
2710;SDS011;20721;47.402;8.550;2023-06-05T00:54:25;8.39;;;8.39;;
2710;SDS011;20721;47.402;8.550;2023-06-05T00:55:25;8.52;;;8.52;;
2710;SDS011;20721;47.402;8.550;2023-06-05T00:56:27;8.29;;;8.29;;
2710;SDS011;20721;47.402;8.550;2023-06-05T00:57:26;7.99;;;7.99;;
2710;SDS011;20721;47.402;8.550;2023-06-05T00:58:27;7.88;;;7.88;;
2710;SDS011;20721;47.402;8.550;2023-06-05T01:00:25;7.70;;;7.70;;
2710;SDS011;20721;47.402;8.550;2023-06-05T01:01:27;7.72;;;7.72;;
2710;SDS011;20721;47.402;8.550;2023-06-05T01:02:26;8.00;;;8.00;;
2710;SDS011;20721;47.402;8.550;2023-06-05T01:03:27;8.01;;;8.01;;
2710;SDS011;20721;47.402;8.550;2023-06-05T01:04:25;8.71;;;8.71;;
2710;SDS011;20721;47.402;8.550;2023-06-05T01:05:25;8.12;;;8.12;;
2710;SDS011;20721;47.402;8.550;2023-06-05T01:06:26;8.57;;;8.57;;
2710;SDS011;20721;47.402;8.550;2023-06-05T01:07:26;8.38;;;8.38;;
2710;SDS011;20721;47.402;8.550;2023-06-05T01:09:25;8.20;;;8.20;;
2710;SDS011;20721;47.402;8.550;2023-06-05T01:10:25;8.09;;;8.09;;
2710;SDS011;20721;47.402;8.550;2023-06-05T01:12:28;9.08;;;9.08;;
2710;SDS011;20721;47.402;8.550;2023-06-05T01:13:33;8.41;;;8.41;;
2710;SDS011;20721;47.402;8.550;2023-06-05T01:14:32;8.22;;;8.22;;
2710;SDS011;20721;47.402;8.550;2023-06-05T01:15:27;7.58;;;7.58;;
2710;SDS011;20721;47.402;8.550;2023-06-05T01:17:27;7.94;;;7.94;;
2710;SDS011;20721;47.402;8.550;2023-06-05T01:19:27;8.30;;;8.30;;
2710;SDS011;20721;47.402;8.550;2023-06-05T01:20:31;8.38;;;8.38;;
2710;SDS011;20721;47.402;8.550;2023-06-05T01:21:26;7.81;;;7.81;;
2710;SDS011;20721;47.402;8.550;2023-06-05T01:22:26;8.59;;;8.59;;
2710;SDS011;20721;47.402;8.550;2023-06-05T01:23:25;8.13;;;8.13;;
2710;SDS011;20721;47.402;8.550;2023-06-05T01:24:26;8.05;;;8.05;;
2710;SDS011;20721;47.402;8.550;2023-06-05T01:25:25;8.45;;;8.45;;
2710;SDS011;20721;47.402;8.550;2023-06-05T01:26:30;8.17;;;8.17;;
2710;SDS011;20721;47.402;8.550;2023-06-05T01:28:27;8.41;;;8.41;;
2710;SDS011;20721;47.402;8.550;2023-06-05T01:29:29;7.75;;;7.75;;
2710;SDS011;20721;47.402;8.550;2023-06-05T01:30:34;8.86;;;8.86;;
2710;SDS011;20721;47.402;8.550;2023-06-05T01:31:28;8.38;;;8.37;;
2710;SDS011;20721;47.402;8.550;2023-06-05T01:33:33;8.00;;;8.00;;
2710;SDS011;20721;47.402;8.550;2023-06-05T01:34:30;8.57;;;8.57;;
2710;SDS011;20721;47.402;8.550;2023-06-05T01:35:27;8.85;;;8.85;;
2710;SDS011;20721;47.402;8.550;2023-06-05T01:37:29;8.08;;;8.08;;
2710;SDS011;20721;47.402;8.550;2023-06-05T01:38:26;8.19;;;8.19;;
2710;SDS011;20721;47.402;8.550;2023-06-05T01:39:28;8.48;;;8.48;;
2710;SDS011;20721;47.402;8.550;2023-06-05T01:40:27;7.90;;;7.90;;
2710;SDS011;20721;47.402;8.550;2023-06-05T01:41:26;8.66;;;8.66;;
2710;SDS011;20721;47.402;8.550;2023-06-05T01:42:26;8.25;;;8.25;;
2710;SDS011;20721;47.402;8.550;2023-06-05T01:43:26;8.41;;;8.41;;
2710;SDS011;20721;47.402;8.550;2023-06-05T01:44:28;8.41;;;8.41;;
2710;SDS011;20721;47.402;8.550;2023-06-05T01:45:27;7.73;;;7.73;;
2710;SDS011;20721;47.402;8.550;2023-06-05T01:46:26;8.74;;;8.74;;
2710;SDS011;20721;47.402;8.550;2023-06-05T01:47:25;8.38;;;8.38;;
2710;SDS011;20721;47.402;8.550;2023-06-05T01:48:26;8.23;;;8.23;;
2710;SDS011;20721;47.402;8.550;2023-06-05T01:49:26;8.16;;;8.16;;
2710;SDS011;20721;47.402;8.550;2023-06-05T01:50:26;7.87;;;7.87;;
2710;SDS011;20721;47.402;8.550;2023-06-05T01:51:25;7.57;;;7.57;;
2710;SDS011;20721;47.402;8.550;2023-06-05T01:52:25;7.93;;;7.93;;
2710;SDS011;20721;47.402;8.550;2023-06-05T01:53:27;8.39;;;8.39;;
2710;SDS011;20721;47.402;8.550;2023-06-05T01:54:28;8.43;;;8.43;;
2710;SDS011;20721;47.402;8.550;2023-06-05T01:55:28;7.62;;;7.62;;
2710;SDS011;20721;47.402;8.550;2023-06-05T01:56:29;7.72;;;7.72;;
2710;SDS011;20721;47.402;8.550;2023-06-05T01:57:27;8.56;;;8.56;;
2710;SDS011;20721;47.402;8.550;2023-06-05T01:58:26;7.97;;;7.97;;
2710;SDS011;20721;47.402;8.550;2023-06-05T01:59:26;8.65;;;8.65;;
2710;SDS011;20721;47.402;8.550;2023-06-05T02:00:32;8.55;;;8.55;;
2710;SDS011;20721;47.402;8.550;2023-06-05T02:02:26;8.46;;;8.46;;
2710;SDS011;20721;47.402;8.550;2023-06-05T02:03:26;8.12;;;8.12;;
2710;SDS011;20721;47.402;8.550;2023-06-05T02:04:29;8.44;;;8.44;;
2710;SDS011;20721;47.402;8.550;2023-06-05T02:05:26;7.88;;;7.88;;
2710;SDS011;20721;47.402;8.550;2023-06-05T02:06:26;7.63;;;7.63;;
2710;SDS011;20721;47.402;8.550;2023-06-05T02:07:25;8.16;;;8.16;;
2710;SDS011;20721;47.402;8.550;2023-06-05T02:08:29;8.57;;;8.57;;
2710;SDS011;20721;47.402;8.550;2023-06-05T02:09:26;8.84;;;8.84;;
2710;SDS011;20721;47.402;8.550;2023-06-05T02:10:29;7.85;;;7.85;;
2710;SDS011;20721;47.402;8.550;2023-06-05T02:11:25;7.99;;;7.99;;
2710;SDS011;20721;47.402;8.550;2023-06-05T02:12:26;7.08;;;7.08;;
2710;SDS011;20721;47.402;8.550;2023-06-05T02:13:26;7.82;;;7.82;;
2710;SDS011;20721;47.402;8.550;2023-06-05T02:15:26;7.78;;;7.78;;
2710;SDS011;20721;47.402;8.550;2023-06-05T02:16:27;7.53;;;7.53;;
2710;SDS011;20721;47.402;8.550;2023-06-05T02:17:26;8.77;;;8.77;;
2710;SDS011;20721;47.402;8.550;2023-06-05T02:18:27;8.37;;;8.37;;
2710;SDS011;20721;47.402;8.550;2023-06-05T02:19:26;9.09;;;9.09;;
2710;SDS011;20721;47.402;8.550;2023-06-05T02:20:26;8.12;;;8.12;;
2710;SDS011;20721;47.402;8.550;2023-06-05T02:21:26;8.19;;;8.19;;
2710;SDS011;20721;47.402;8.550;2023-06-05T02:22:25;7.62;;;7.62;;
2710;SDS011;20721;47.402;8.550;2023-06-05T02:23:27;8.35;;;8.35;;
2710;SDS011;20721;47.402;8.550;2023-06-05T02:24:26;7.57;;;7.57;;
2710;SDS011;20721;47.402;8.550;2023-06-05T02:25:26;8.59;;;8.59;;
2710;SDS011;20721;47.402;8.550;2023-06-05T02:26:28;8.19;;;8.19;;
2710;SDS011;20721;47.402;8.550;2023-06-05T02:27:26;8.12;;;8.12;;
2710;SDS011;20721;47.402;8.550;2023-06-05T02:28:26;7.96;;;7.96;;
2710;SDS011;20721;47.402;8.550;2023-06-05T02:29:25;7.15;;;7.15;;
2710;SDS011;20721;47.402;8.550;2023-06-05T02:31:26;8.38;;;8.38;;
2710;SDS011;20721;47.402;8.550;2023-06-05T02:32:25;8.89;;;8.89;;
2710;SDS011;20721;47.402;8.550;2023-06-05T02:33:25;7.18;;;7.18;;
2710;SDS011;20721;47.402;8.550;2023-06-05T02:34:27;8.32;;;8.32;;
2710;SDS011;20721;47.402;8.550;2023-06-05T02:35:26;8.95;;;8.95;;
2710;SDS011;20721;47.402;8.550;2023-06-05T02:36:27;7.78;;;7.78;;
2710;SDS011;20721;47.402;8.550;2023-06-05T02:37:26;7.30;;;7.30;;
2710;SDS011;20721;47.402;8.550;2023-06-05T02:38:25;8.06;;;8.06;;
2710;SDS011;20721;47.402;8.550;2023-06-05T02:41:27;7.82;;;7.82;;
2710;SDS011;20721;47.402;8.550;2023-06-05T02:42:26;7.53;;;7.53;;
2710;SDS011;20721;47.402;8.550;2023-06-05T02:43:32;8.28;;;8.28;;
2710;SDS011;20721;47.402;8.550;2023-06-05T02:44:25;7.61;;;7.61;;
2710;SDS011;20721;47.402;8.550;2023-06-05T02:45:25;7.97;;;7.97;;
2710;SDS011;20721;47.402;8.550;2023-06-05T02:46:26;7.74;;;7.74;;
2710;SDS011;20721;47.402;8.550;2023-06-05T02:47:25;8.23;;;8.23;;
2710;SDS011;20721;47.402;8.550;2023-06-05T02:48:25;8.47;;;8.47;;
2710;SDS011;20721;47.402;8.550;2023-06-05T02:50:25;8.45;;;8.45;;
2710;SDS011;20721;47.402;8.550;2023-06-05T02:51:26;8.32;;;8.32;;
2710;SDS011;20721;47.402;8.550;2023-06-05T02:52:25;7.92;;;7.92;;
2710;SDS011;20721;47.402;8.550;2023-06-05T02:53:25;8.07;;;8.07;;
2710;SDS011;20721;47.402;8.550;2023-06-05T02:54:25;7.90;;;7.90;;
2710;SDS011;20721;47.402;8.550;2023-06-05T02:55:27;7.60;;;7.60;;
2710;SDS011;20721;47.402;8.550;2023-06-05T02:58:27;7.89;;;7.89;;
2710;SDS011;20721;47.402;8.550;2023-06-05T02:59:26;7.57;;;7.57;;
2710;SDS011;20721;47.402;8.550;2023-06-05T03:00:26;7.91;;;7.91;;
2710;SDS011;20721;47.402;8.550;2023-06-05T03:01:26;8.16;;;8.16;;
2710;SDS011;20721;47.402;8.550;2023-06-05T03:02:26;8.06;;;8.06;;
2710;SDS011;20721;47.402;8.550;2023-06-05T03:03:28;7.99;;;7.99;;
2710;SDS011;20721;47.402;8.550;2023-06-05T03:04:31;7.16;;;7.16;;
2710;SDS011;20721;47.402;8.550;2023-06-05T03:05:27;7.39;;;7.39;;
2710;SDS011;20721;47.402;8.550;2023-06-05T03:06:27;8.43;;;8.37;;
2710;SDS011;20721;47.402;8.550;2023-06-05T03:07:27;8.11;;;8.11;;
2710;SDS011;20721;47.402;8.550;2023-06-05T03:08:25;8.01;;;8.01;;
2710;SDS011;20721;47.402;8.550;2023-06-05T03:09:26;7.72;;;7.72;;
2710;SDS011;20721;47.402;8.550;2023-06-05T03:10:26;7.63;;;7.63;;
2710;SDS011;20721;47.402;8.550;2023-06-05T03:11:27;7.72;;;7.69;;
2710;SDS011;20721;47.402;8.550;2023-06-05T03:12:25;7.78;;;7.78;;
2710;SDS011;20721;47.402;8.550;2023-06-05T03:13:25;8.48;;;8.48;;
2710;SDS011;20721;47.402;8.550;2023-06-05T03:15:27;8.44;;;8.44;;
2710;SDS011;20721;47.402;8.550;2023-06-05T03:16:27;7.92;;;7.92;;
2710;SDS011;20721;47.402;8.550;2023-06-05T03:18:26;7.82;;;7.82;;
2710;SDS011;20721;47.402;8.550;2023-06-05T03:19:26;8.57;;;8.56;;
2710;SDS011;20721;47.402;8.550;2023-06-05T03:20:32;7.63;;;7.63;;
2710;SDS011;20721;47.402;8.550;2023-06-05T03:21:25;7.47;;;7.47;;
2710;SDS011;20721;47.402;8.550;2023-06-05T03:23:26;8.36;;;8.36;;
2710;SDS011;20721;47.402;8.550;2023-06-05T03:24:26;8.43;;;8.43;;
2710;SDS011;20721;47.402;8.550;2023-06-05T03:25:26;7.99;;;7.99;;
2710;SDS011;20721;47.402;8.550;2023-06-05T03:26:26;8.27;;;8.27;;
2710;SDS011;20721;47.402;8.550;2023-06-05T03:27:25;9.30;;;9.30;;
2710;SDS011;20721;47.402;8.550;2023-06-05T03:28:26;9.05;;;9.05;;
2710;SDS011;20721;47.402;8.550;2023-06-05T03:29:25;8.69;;;8.69;;
2710;SDS011;20721;47.402;8.550;2023-06-05T03:30:28;8.44;;;8.44;;
2710;SDS011;20721;47.402;8.550;2023-06-05T03:31:26;7.95;;;7.95;;
2710;SDS011;20721;47.402;8.550;2023-06-05T03:32:26;8.15;;;8.15;;
2710;SDS011;20721;47.402;8.550;2023-06-05T03:33:27;7.78;;;7.78;;
2710;SDS011;20721;47.402;8.550;2023-06-05T03:34:26;8.71;;;8.71;;
2710;SDS011;20721;47.402;8.550;2023-06-05T03:35:27;7.55;;;7.55;;
2710;SDS011;20721;47.402;8.550;2023-06-05T03:37:26;7.61;;;7.61;;
2710;SDS011;20721;47.402;8.550;2023-06-05T03:38:26;7.70;;;7.70;;
2710;SDS011;20721;47.402;8.550;2023-06-05T03:39:25;7.91;;;7.91;;
2710;SDS011;20721;47.402;8.550;2023-06-05T03:40:26;8.00;;;8.00;;
2710;SDS011;20721;47.402;8.550;2023-06-05T03:41:26;8.51;;;8.51;;
2710;SDS011;20721;47.402;8.550;2023-06-05T03:42:26;7.55;;;7.55;;
2710;SDS011;20721;47.402;8.550;2023-06-05T03:43:26;8.47;;;8.47;;
2710;SDS011;20721;47.402;8.550;2023-06-05T03:44:26;7.66;;;7.66;;
2710;SDS011;20721;47.402;8.550;2023-06-05T03:45:26;8.15;;;8.15;;
2710;SDS011;20721;47.402;8.550;2023-06-05T03:48:30;8.24;;;8.24;;
2710;SDS011;20721;47.402;8.550;2023-06-05T03:49:26;7.75;;;7.75;;
2710;SDS011;20721;47.402;8.550;2023-06-05T03:50:26;8.54;;;8.54;;
2710;SDS011;20721;47.402;8.550;2023-06-05T03:52:26;7.87;;;7.87;;
2710;SDS011;20721;47.402;8.550;2023-06-05T03:53:26;7.62;;;7.62;;
2710;SDS011;20721;47.402;8.550;2023-06-05T03:54:28;8.37;;;8.37;;
2710;SDS011;20721;47.402;8.550;2023-06-05T03:55:26;8.27;;;8.27;;
2710;SDS011;20721;47.402;8.550;2023-06-05T03:56:26;8.15;;;8.15;;
2710;SDS011;20721;47.402;8.550;2023-06-05T03:57:26;8.63;;;8.63;;
2710;SDS011;20721;47.402;8.550;2023-06-05T03:58:26;7.72;;;7.72;;
2710;SDS011;20721;47.402;8.550;2023-06-05T03:59:29;9.04;;;9.04;;
2710;SDS011;20721;47.402;8.550;2023-06-05T04:00:26;8.89;;;8.89;;
2710;SDS011;20721;47.402;8.550;2023-06-05T04:01:26;8.66;;;8.66;;
2710;SDS011;20721;47.402;8.550;2023-06-05T04:02:26;9.02;;;9.02;;
2710;SDS011;20721;47.402;8.550;2023-06-05T04:04:26;8.76;;;8.76;;
2710;SDS011;20721;47.402;8.550;2023-06-05T04:05:26;8.50;;;8.50;;
2710;SDS011;20721;47.402;8.550;2023-06-05T04:06:26;9.72;;;9.72;;
2710;SDS011;20721;47.402;8.550;2023-06-05T04:07:26;8.67;;;8.67;;
2710;SDS011;20721;47.402;8.550;2023-06-05T04:09:26;9.09;;;9.09;;
2710;SDS011;20721;47.402;8.550;2023-06-05T04:10:26;8.31;;;8.31;;
2710;SDS011;20721;47.402;8.550;2023-06-05T04:11:26;8.93;;;8.93;;
2710;SDS011;20721;47.402;8.550;2023-06-05T04:12:27;8.50;;;8.50;;
2710;SDS011;20721;47.402;8.550;2023-06-05T04:15:26;7.50;;;7.50;;
2710;SDS011;20721;47.402;8.550;2023-06-05T04:17:26;7.76;;;7.76;;
2710;SDS011;20721;47.402;8.550;2023-06-05T04:18:26;8.91;;;8.91;;
2710;SDS011;20721;47.402;8.550;2023-06-05T04:19:26;8.28;;;8.28;;
2710;SDS011;20721;47.402;8.550;2023-06-05T04:20:26;7.93;;;7.93;;
2710;SDS011;20721;47.402;8.550;2023-06-05T04:21:26;9.11;;;9.11;;
2710;SDS011;20721;47.402;8.550;2023-06-05T04:23:26;7.92;;;7.92;;
2710;SDS011;20721;47.402;8.550;2023-06-05T04:24:26;8.25;;;8.25;;
2710;SDS011;20721;47.402;8.550;2023-06-05T04:25:28;7.79;;;7.79;;
2710;SDS011;20721;47.402;8.550;2023-06-05T04:26:27;8.47;;;8.47;;
2710;SDS011;20721;47.402;8.550;2023-06-05T04:27:27;9.45;;;9.45;;
2710;SDS011;20721;47.402;8.550;2023-06-05T04:28:26;8.60;;;8.60;;
2710;SDS011;20721;47.402;8.550;2023-06-05T04:29:26;9.62;;;9.44;;
2710;SDS011;20721;47.402;8.550;2023-06-05T04:30:26;9.16;;;9.11;;
2710;SDS011;20721;47.402;8.550;2023-06-05T04:31:29;8.26;;;8.26;;
2710;SDS011;20721;47.402;8.550;2023-06-05T04:32:26;7.71;;;7.71;;
2710;SDS011;20721;47.402;8.550;2023-06-05T04:33:26;7.87;;;7.87;;
2710;SDS011;20721;47.402;8.550;2023-06-05T04:34:28;8.95;;;8.95;;
2710;SDS011;20721;47.402;8.550;2023-06-05T04:35:26;8.24;;;8.24;;
2710;SDS011;20721;47.402;8.550;2023-06-05T04:36:28;8.48;;;8.47;;
2710;SDS011;20721;47.402;8.550;2023-06-05T04:37:26;8.23;;;8.22;;
2710;SDS011;20721;47.402;8.550;2023-06-05T04:40:27;8.51;;;8.51;;
2710;SDS011;20721;47.402;8.550;2023-06-05T04:41:26;7.90;;;7.90;;
2710;SDS011;20721;47.402;8.550;2023-06-05T04:42:27;9.10;;;9.10;;
2710;SDS011;20721;47.402;8.550;2023-06-05T04:43:26;8.98;;;8.98;;
2710;SDS011;20721;47.402;8.550;2023-06-05T04:44:26;8.71;;;8.71;;
2710;SDS011;20721;47.402;8.550;2023-06-05T04:45:26;10.15;;;10.15;;
2710;SDS011;20721;47.402;8.550;2023-06-05T04:46:26;8.30;;;8.30;;
2710;SDS011;20721;47.402;8.550;2023-06-05T04:47:26;9.05;;;9.05;;
2710;SDS011;20721;47.402;8.550;2023-06-05T04:48:26;8.13;;;8.13;;
2710;SDS011;20721;47.402;8.550;2023-06-05T04:49:28;8.36;;;8.36;;
2710;SDS011;20721;47.402;8.550;2023-06-05T04:50:34;8.59;;;8.59;;
2710;SDS011;20721;47.402;8.550;2023-06-05T04:51:26;8.93;;;8.93;;
2710;SDS011;20721;47.402;8.550;2023-06-05T04:52:26;8.62;;;8.62;;
2710;SDS011;20721;47.402;8.550;2023-06-05T04:53:27;8.24;;;8.24;;
2710;SDS011;20721;47.402;8.550;2023-06-05T04:54:26;8.46;;;8.46;;
2710;SDS011;20721;47.402;8.550;2023-06-05T04:55:27;8.34;;;8.33;;
2710;SDS011;20721;47.402;8.550;2023-06-05T04:56:26;9.19;;;9.19;;
2710;SDS011;20721;47.402;8.550;2023-06-05T04:57:28;9.40;;;9.40;;
2710;SDS011;20721;47.402;8.550;2023-06-05T04:58:26;9.13;;;9.13;;
2710;SDS011;20721;47.402;8.550;2023-06-05T04:59:26;9.37;;;9.37;;
2710;SDS011;20721;47.402;8.550;2023-06-05T05:00:26;9.28;;;9.28;;
2710;SDS011;20721;47.402;8.550;2023-06-05T05:01:26;9.25;;;9.25;;
2710;SDS011;20721;47.402;8.550;2023-06-05T05:02:29;8.96;;;8.96;;
2710;SDS011;20721;47.402;8.550;2023-06-05T05:03:26;8.70;;;8.70;;
2710;SDS011;20721;47.402;8.550;2023-06-05T05:04:26;8.87;;;8.87;;
2710;SDS011;20721;47.402;8.550;2023-06-05T05:05:26;9.02;;;9.02;;
2710;SDS011;20721;47.402;8.550;2023-06-05T05:06:26;9.01;;;9.01;;
2710;SDS011;20721;47.402;8.550;2023-06-05T05:07:26;8.73;;;8.73;;
2710;SDS011;20721;47.402;8.550;2023-06-05T05:08:28;9.90;;;9.90;;
2710;SDS011;20721;47.402;8.550;2023-06-05T05:09:26;9.44;;;9.44;;
2710;SDS011;20721;47.402;8.550;2023-06-05T05:10:26;9.15;;;9.15;;
2710;SDS011;20721;47.402;8.550;2023-06-05T05:11:26;10.22;;;10.22;;
2710;SDS011;20721;47.402;8.550;2023-06-05T05:12:26;10.17;;;10.17;;
2710;SDS011;20721;47.402;8.550;2023-06-05T05:13:26;9.46;;;9.37;;
2710;SDS011;20721;47.402;8.550;2023-06-05T05:14:27;9.44;;;9.44;;
2710;SDS011;20721;47.402;8.550;2023-06-05T05:15:26;9.02;;;9.02;;
2710;SDS011;20721;47.402;8.550;2023-06-05T05:16:26;9.98;;;9.98;;
2710;SDS011;20721;47.402;8.550;2023-06-05T05:17:29;10.83;;;10.83;;
2710;SDS011;20721;47.402;8.550;2023-06-05T05:18:26;10.08;;;10.08;;
2710;SDS011;20721;47.402;8.550;2023-06-05T05:19:26;9.81;;;9.81;;
2710;SDS011;20721;47.402;8.550;2023-06-05T05:20:27;10.90;;;10.90;;
2710;SDS011;20721;47.402;8.550;2023-06-05T05:21:27;10.24;;;10.24;;
2710;SDS011;20721;47.402;8.550;2023-06-05T05:22:26;10.18;;;10.11;;
2710;SDS011;20721;47.402;8.550;2023-06-05T05:23:28;10.15;;;10.15;;
2710;SDS011;20721;47.402;8.550;2023-06-05T05:24:26;9.61;;;9.61;;
2710;SDS011;20721;47.402;8.550;2023-06-05T05:25:26;9.84;;;9.84;;
2710;SDS011;20721;47.402;8.550;2023-06-05T05:26:26;9.56;;;9.56;;
2710;SDS011;20721;47.402;8.550;2023-06-05T05:27:26;9.88;;;9.88;;
2710;SDS011;20721;47.402;8.550;2023-06-05T05:28:26;10.55;;;10.55;;
2710;SDS011;20721;47.402;8.550;2023-06-05T05:29:26;10.38;;;10.38;;
2710;SDS011;20721;47.402;8.550;2023-06-05T05:30:26;10.21;;;10.21;;
2710;SDS011;20721;47.402;8.550;2023-06-05T05:31:27;9.47;;;9.47;;
2710;SDS011;20721;47.402;8.550;2023-06-05T05:32:26;9.85;;;9.85;;
2710;SDS011;20721;47.402;8.550;2023-06-05T05:33:26;10.44;;;10.44;;
2710;SDS011;20721;47.402;8.550;2023-06-05T05:34:26;9.68;;;9.68;;
2710;SDS011;20721;47.402;8.550;2023-06-05T05:35:26;9.72;;;9.72;;
2710;SDS011;20721;47.402;8.550;2023-06-05T05:36:26;10.78;;;10.78;;
2710;SDS011;20721;47.402;8.550;2023-06-05T05:37:26;10.51;;;10.51;;
2710;SDS011;20721;47.402;8.550;2023-06-05T05:38:26;10.30;;;10.30;;
2710;SDS011;20721;47.402;8.550;2023-06-05T05:39:30;10.22;;;10.22;;
2710;SDS011;20721;47.402;8.550;2023-06-05T05:40:26;9.21;;;9.21;;
2710;SDS011;20721;47.402;8.550;2023-06-05T05:41:26;10.75;;;10.75;;
2710;SDS011;20721;47.402;8.550;2023-06-05T05:42:27;9.90;;;9.90;;
2710;SDS011;20721;47.402;8.550;2023-06-05T05:43:26;9.22;;;9.22;;
2710;SDS011;20721;47.402;8.550;2023-06-05T05:44:26;10.37;;;10.37;;
2710;SDS011;20721;47.402;8.550;2023-06-05T05:45:29;9.80;;;9.80;;
2710;SDS011;20721;47.402;8.550;2023-06-05T05:46:26;10.07;;;10.07;;
2710;SDS011;20721;47.402;8.550;2023-06-05T05:47:26;10.04;;;10.04;;
2710;SDS011;20721;47.402;8.550;2023-06-05T05:48:27;9.58;;;9.58;;
2710;SDS011;20721;47.402;8.550;2023-06-05T05:49:26;10.30;;;10.30;;
2710;SDS011;20721;47.402;8.550;2023-06-05T05:50:26;8.99;;;8.99;;
2710;SDS011;20721;47.402;8.550;2023-06-05T05:51:26;10.03;;;10.03;;
2710;SDS011;20721;47.402;8.550;2023-06-05T05:52:27;9.05;;;9.05;;
2710;SDS011;20721;47.402;8.550;2023-06-05T05:54:26;9.90;;;9.90;;
2710;SDS011;20721;47.402;8.550;2023-06-05T05:55:26;10.01;;;10.01;;
2710;SDS011;20721;47.402;8.550;2023-06-05T05:56:26;9.84;;;9.84;;
2710;SDS011;20721;47.402;8.550;2023-06-05T05:57:26;9.22;;;9.22;;
2710;SDS011;20721;47.402;8.550;2023-06-05T05:58:26;9.48;;;9.48;;
2710;SDS011;20721;47.402;8.550;2023-06-05T05:59:26;10.25;;;10.25;;
2710;SDS011;20721;47.402;8.550;2023-06-05T06:00:26;9.55;;;9.55;;
2710;SDS011;20721;47.402;8.550;2023-06-05T06:01:26;9.56;;;9.56;;
2710;SDS011;20721;47.402;8.550;2023-06-05T06:02:26;9.10;;;9.10;;
2710;SDS011;20721;47.402;8.550;2023-06-05T06:03:26;9.15;;;9.15;;
2710;SDS011;20721;47.402;8.550;2023-06-05T06:04:26;8.82;;;8.82;;
2710;SDS011;20721;47.402;8.550;2023-06-05T06:05:28;9.15;;;9.14;;
2710;SDS011;20721;47.402;8.550;2023-06-05T06:06:26;8.48;;;8.48;;
2710;SDS011;20721;47.402;8.550;2023-06-05T06:07:26;9.38;;;9.26;;
2710;SDS011;20721;47.402;8.550;2023-06-05T06:08:26;9.14;;;9.14;;
2710;SDS011;20721;47.402;8.550;2023-06-05T06:09:29;9.24;;;9.24;;
2710;SDS011;20721;47.402;8.550;2023-06-05T06:10:26;8.98;;;8.98;;
2710;SDS011;20721;47.402;8.550;2023-06-05T06:11:26;8.86;;;8.86;;
2710;SDS011;20721;47.402;8.550;2023-06-05T06:12:26;9.40;;;9.40;;
2710;SDS011;20721;47.402;8.550;2023-06-05T06:13:26;10.10;;;10.10;;
2710;SDS011;20721;47.402;8.550;2023-06-05T06:14:26;9.09;;;9.09;;
2710;SDS011;20721;47.402;8.550;2023-06-05T06:15:26;8.77;;;8.77;;
2710;SDS011;20721;47.402;8.550;2023-06-05T06:16:29;9.51;;;9.51;;
2710;SDS011;20721;47.402;8.550;2023-06-05T06:17:26;9.82;;;9.82;;
2710;SDS011;20721;47.402;8.550;2023-06-05T06:18:26;9.13;;;9.13;;
2710;SDS011;20721;47.402;8.550;2023-06-05T06:19:26;8.89;;;8.89;;
2710;SDS011;20721;47.402;8.550;2023-06-05T06:20:26;9.68;;;9.68;;
2710;SDS011;20721;47.402;8.550;2023-06-05T06:21:26;8.52;;;8.52;;
2710;SDS011;20721;47.402;8.550;2023-06-05T06:22:29;8.62;;;8.62;;
2710;SDS011;20721;47.402;8.550;2023-06-05T06:23:26;8.78;;;8.70;;
2710;SDS011;20721;47.402;8.550;2023-06-05T06:24:26;9.12;;;9.06;;
2710;SDS011;20721;47.402;8.550;2023-06-05T06:25:27;9.86;;;9.83;;
2710;SDS011;20721;47.402;8.550;2023-06-05T06:26:26;8.92;;;8.92;;
2710;SDS011;20721;47.402;8.550;2023-06-05T06:27:36;8.87;;;8.87;;
2710;SDS011;20721;47.402;8.550;2023-06-05T06:28:27;8.81;;;8.78;;
2710;SDS011;20721;47.402;8.550;2023-06-05T06:29:29;8.86;;;8.86;;
2710;SDS011;20721;47.402;8.550;2023-06-05T06:30:26;7.88;;;7.88;;
2710;SDS011;20721;47.402;8.550;2023-06-05T06:31:26;8.60;;;8.60;;
2710;SDS011;20721;47.402;8.550;2023-06-05T06:32:27;8.93;;;8.93;;
2710;SDS011;20721;47.402;8.550;2023-06-05T06:33:26;7.95;;;7.95;;
2710;SDS011;20721;47.402;8.550;2023-06-05T06:34:26;7.82;;;7.82;;
2710;SDS011;20721;47.402;8.550;2023-06-05T06:35:26;8.18;;;8.18;;
2710;SDS011;20721;47.402;8.550;2023-06-05T06:36:27;8.71;;;8.71;;
2710;SDS011;20721;47.402;8.550;2023-06-05T06:37:26;8.58;;;8.58;;
2710;SDS011;20721;47.402;8.550;2023-06-05T06:38:26;8.32;;;8.32;;
2710;SDS011;20721;47.402;8.550;2023-06-05T06:39:26;7.46;;;7.46;;
2710;SDS011;20721;47.402;8.550;2023-06-05T06:40:26;8.16;;;8.16;;
2710;SDS011;20721;47.402;8.550;2023-06-05T06:41:26;7.09;;;7.09;;
2710;SDS011;20721;47.402;8.550;2023-06-05T06:42:26;7.95;;;7.95;;
2710;SDS011;20721;47.402;8.550;2023-06-05T06:43:26;9.46;;;9.46;;
2710;SDS011;20721;47.402;8.550;2023-06-05T06:44:26;9.11;;;9.11;;
2710;SDS011;20721;47.402;8.550;2023-06-05T06:45:26;7.93;;;7.93;;
2710;SDS011;20721;47.402;8.550;2023-06-05T06:46:26;8.31;;;8.29;;
2710;SDS011;20721;47.402;8.550;2023-06-05T06:47:27;7.80;;;7.80;;
2710;SDS011;20721;47.402;8.550;2023-06-05T06:48:28;8.70;;;8.64;;